Change the Weather History Date:

Monday, November 14, 2011

  Actual Average Record
Temperature  
Mean Temperature 37 °F -  
Max Temperature 48 °F 48 °F 68 °F (1999)
Min Temperature 26 °F 19 °F 5 °F (2000)
Degree Days  
Heating Degree Days 28    
Moisture  
Dew Point 26 °F    
Average Humidity 70    
Maximum Humidity 93    
Minimum Humidity 40    
Precipitation  
Precipitation 0.00 in - - ()
Sea Level Pressure  
Sea Level Pressure 29.98 in    
Wind  
Wind Speed 7 mph (SW)    
Max Wind Speed 16 mph    
Max Gust Speed 22 mph    
Visibility 10 miles    
Events      
Averages and records for this station are not official NWS values.
T = Trace of Precipitation, MM = Missing Value Source: NWS Daily Summary

Daily Weather History Graph

Daily Weather History Graph

Search for Another Location

Airport or City:

Trip Planner

Search our weather history database for the weather conditions in past years. The results will help you decide how hot, cold, wet, or windy it might be!

Date:

Astronomy

Nov. 14, 2011 Rise Set
Actual Time 6:38 AM MST 4:54 PM MST
Civil Twilight 6:11 AM MST 5:22 PM MST
Nautical Twilight 5:40 AM MST 5:53 PM MST
Astronomical Twilight 5:09 AM MST 6:23 PM MST
Moon 8:06 PM MST (11/14) 9:57 AM MST (11/14)
Length of Visible Light 11h 10m
Length of Day
10h 16m
Waning Gibbous, 86% of the Moon is Illuminated
Nov 14
Waning Gibbous
Nov 18
Last Quarter
Nov 24
New
Dec 2
First Quarter
Dec 10
Full

Hourly Weather History & Observations

Time (MST) Temp. Windchill Dew Point Humidity Pressure Visibility Wind Dir Wind Speed Gust Speed Precip Events Conditions
12:15 AM 37.4 °F 31.4 °F 33.8 °F 87% 29.96 in 10.0 mi SSW 8.1 mph - N/A   Mostly Cloudy
12:35 AM 35.6 °F 29.2 °F 32.0 °F 87% 29.96 in 10.0 mi SW 8.1 mph - N/A   Scattered Clouds
12:55 AM 35.6 °F 30.7 °F 30.2 °F 81% 29.97 in 10.0 mi SW 5.8 mph - N/A   Clear
1:15 AM 33.8 °F 28.6 °F 30.2 °F 87% 29.97 in 10.0 mi East 5.8 mph - N/A   Clear
1:35 AM 33.8 °F 27.7 °F 30.2 °F 87% 29.97 in 10.0 mi SE 6.9 mph - N/A   Mostly Cloudy
1:55 AM 33.8 °F 28.6 °F 30.2 °F 87% 29.97 in 10.0 mi South 5.8 mph - N/A   Mostly Cloudy
2:35 AM 33.8 °F 27.7 °F 28.4 °F 81% 29.97 in 10.0 mi SSW 6.9 mph - N/A   Scattered Clouds
2:55 AM 30.2 °F 24.3 °F 28.4 °F 93% 29.97 in 10.0 mi South 5.8 mph - N/A   Clear
3:15 AM 33.8 °F 27.7 °F 28.4 °F 81% 29.97 in 10.0 mi SW 6.9 mph - N/A   Clear
3:35 AM 30.2 °F 25.4 °F 26.6 °F 86% 29.96 in 10.0 mi SSE 4.6 mph - N/A   Clear
3:55 AM 30.2 °F - 26.6 °F 86% 29.97 in 10.0 mi Calm Calm - N/A   Clear
4:15 AM 28.4 °F - 26.6 °F 93% 29.97 in 10.0 mi Calm Calm - N/A   Clear
4:35 AM 30.2 °F - 26.6 °F 86% 29.97 in 10.0 mi Calm Calm - N/A   Clear
5:15 AM 28.4 °F 24.6 °F 24.8 °F 86% 29.98 in 10.0 mi NNW 3.5 mph - N/A   Clear
5:35 AM 30.2 °F 25.4 °F 28.4 °F 93% 29.98 in 10.0 mi West 4.6 mph - N/A   Clear
5:55 AM 30.2 °F - 26.6 °F 86% 29.99 in 10.0 mi Calm Calm - N/A   Clear
6:35 AM 26.6 °F 22.6 °F 24.8 °F 93% 29.98 in 10.0 mi SW 3.5 mph - N/A   Clear
6:55 AM 26.6 °F 22.6 °F 24.8 °F 93% 29.98 in 10.0 mi East 3.5 mph - N/A   Clear
7:35 AM 26.6 °F - 24.8 °F 93% 29.99 in 10.0 mi Calm Calm - N/A   Clear
7:55 AM 30.2 °F - 28.4 °F 93% 30.00 in 10.0 mi Calm Calm - N/A   Clear
8:15 AM 33.8 °F - 28.4 °F 81% 30.00 in 10.0 mi Calm Calm - N/A   Clear
8:35 AM 35.6 °F 31.7 °F 28.4 °F 75% 30.01 in 10.0 mi SSE 4.6 mph - N/A   Clear
8:55 AM 35.6 °F 30.7 °F 28.4 °F 75% 30.02 in 10.0 mi South 5.8 mph - N/A   Clear
9:35 AM 39.2 °F 33.0 °F 30.2 °F 70% 30.03 in 10.0 mi SW 9.2 mph - N/A   Clear
9:55 AM 41.0 °F 34.3 °F 30.2 °F 65% 30.02 in 10.0 mi WSW 11.5 mph - N/A   Clear
10:15 AM 39.2 °F 32.0 °F 30.2 °F 70% 30.02 in 10.0 mi WSW 11.5 mph - N/A   Partly Cloudy
10:35 AM 41.0 °F 35.8 °F 28.4 °F 61% 30.01 in 10.0 mi WSW 8.1 mph - N/A   Partly Cloudy
11:15 AM 42.8 °F 38.6 °F 30.2 °F 61% 30.00 in 10.0 mi SW 6.9 mph 21.9 mph N/A   Partly Cloudy
11:35 AM 44.6 °F 40.7 °F 30.2 °F 57% 29.99 in 10.0 mi WSW 6.9 mph 17.3 mph N/A   Scattered Clouds
12:15 PM 46.4 °F 41.1 °F 30.2 °F 53% 29.96 in 10.0 mi WSW 11.5 mph 17.3 mph N/A   Scattered Clouds
12:35 PM 46.4 °F 40.1 °F 26.6 °F 46% 29.95 in 10.0 mi WSW 15.0 mph 19.6 mph N/A   Partly Cloudy
12:55 PM 46.4 °F 40.1 °F 26.6 °F 46% 29.94 in 10.0 mi WSW 15.0 mph 19.6 mph N/A   Scattered Clouds
1:15 PM 46.4 °F 40.1 °F 24.8 °F 43% 29.94 in 10.0 mi WSW 15.0 mph 21.9 mph N/A   Partly Cloudy
1:35 PM 46.4 °F 41.1 °F 26.6 °F 46% 29.93 in 10.0 mi WSW 11.5 mph 20.7 mph N/A   Clear
1:55 PM 46.4 °F 40.7 °F 24.8 °F 43% 29.93 in 10.0 mi West 12.7 mph - N/A   Clear
2:15 PM 48.2 °F - 24.8 °F 40% 29.93 in 10.0 mi West 13.8 mph 18.4 mph N/A   Clear
2:35 PM 46.4 °F 41.9 °F 26.6 °F 46% 29.94 in 10.0 mi West 9.2 mph 18.4 mph N/A   Scattered Clouds
2:55 PM 46.4 °F 39.8 °F 24.8 °F 43% 29.93 in 10.0 mi West 16.1 mph - N/A   Scattered Clouds
3:15 PM 46.4 °F 40.7 °F 24.8 °F 43% 29.93 in 10.0 mi West 12.7 mph 17.3 mph N/A   Partly Cloudy
3:35 PM 46.4 °F 40.1 °F 24.8 °F 43% 29.93 in 10.0 mi WNW 15.0 mph 20.7 mph N/A   Partly Cloudy
3:55 PM 44.6 °F 38.4 °F 26.6 °F 49% 29.94 in 10.0 mi WNW 12.7 mph 17.3 mph N/A   Clear
4:15 PM 44.6 °F 38.8 °F 24.8 °F 46% 29.94 in 10.0 mi WNW 11.5 mph - N/A   Clear
4:35 PM 42.8 °F 37.5 °F 24.8 °F 49% 29.95 in 10.0 mi WNW 9.2 mph - N/A   Clear
4:55 PM 37.4 °F 31.4 °F 23.0 °F 56% 29.95 in 10.0 mi WNW 8.1 mph - N/A   Clear
5:15 PM 35.6 °F 28.6 °F 21.2 °F 56% 29.96 in 10.0 mi West 9.2 mph - N/A   Clear
5:35 PM 33.8 °F 28.6 °F 21.2 °F 60% 29.96 in 10.0 mi West 5.8 mph - N/A   Clear
5:55 PM 35.6 °F - 23.0 °F 60% 29.96 in 10.0 mi Calm Calm - N/A   Clear
6:15 PM 33.8 °F 28.6 °F 21.2 °F 60% 29.97 in 10.0 mi NNW 5.8 mph - N/A   Clear
6:35 PM 32.0 °F 24.8 °F 21.2 °F 64% 29.97 in 10.0 mi WNW 8.1 mph - N/A   Clear
6:55 PM 33.8 °F - 23.0 °F 65% 29.98 in 10.0 mi Calm Calm - N/A   Clear
7:15 PM 30.2 °F 23.4 °F 21.2 °F 69% 29.98 in 10.0 mi ENE 6.9 mph - N/A   Clear
7:35 PM 30.2 °F 26.7 °F 21.2 °F 69% 29.98 in 10.0 mi South 3.5 mph - N/A   Clear
8:15 PM 30.2 °F 24.3 °F 24.8 °F 80% 30.00 in 10.0 mi ESE 5.8 mph - N/A   Clear
8:35 PM 30.2 °F 24.3 °F 24.8 °F 80% 30.01 in 10.0 mi ESE 5.8 mph - N/A   Clear
8:55 PM 28.4 °F 23.3 °F 23.0 °F 80% 30.01 in 10.0 mi SE 4.6 mph - N/A   Clear
9:15 PM 30.2 °F 26.7 °F 23.0 °F 75% 30.02 in 10.0 mi ESE 3.5 mph - N/A   Clear
9:35 PM 33.8 °F 27.7 °F 24.8 °F 70% 30.02 in 10.0 mi South 6.9 mph - N/A   Clear
9:55 PM 30.2 °F 25.4 °F 23.0 °F 75% 30.02 in 10.0 mi SSW 4.6 mph - N/A   Clear
10:15 PM 32.0 °F 26.4 °F 24.8 °F 75% 30.02 in 10.0 mi WSW 5.8 mph - N/A   Clear
10:35 PM 32.0 °F - 24.8 °F 75% 30.03 in 10.0 mi Calm Calm - N/A   Clear
10:55 PM 28.4 °F 22.2 °F 23.0 °F 80% 30.03 in 10.0 mi ESE 5.8 mph - N/A   Clear
11:15 PM 26.6 °F 22.6 °F 19.4 °F 74% 30.03 in 10.0 mi ESE 3.5 mph - N/A   Clear
11:35 PM 26.6 °F 21.2 °F 21.2 °F 80% 30.04 in 10.0 mi ENE 4.6 mph - N/A   Clear
11:55 PM 26.6 °F - 21.2 °F 80% 30.04 in 10.0 mi Calm Calm - N/A   Clear